Time;durP1;ratioP1;P1;durP2;ratioP2;P2;SDS_P1;SDS_P2;PMS_P1;PMS_P2;Temp;Humidity;BMP_temperature;BMP_pressure;BME280_temperature;BME280_humidity;BME280_pressure;Samples;Min_cycle;Max_cycle;Signal;HPM_P1;HPM_P2
2023/12/14 00:00:25;;;;;;;;;;;;;;;12.64;50.92;99519.91;4927216;28;98434;-70
2023/12/14 00:02:54;;;;;;;;;;;;;;;12.64;51.03;99519.13;4911103;28;99587;-66
2023/12/14 00:05:19;;;;;;;;;;;;;;;12.64;50.91;99519.13;4906123;28;125980;-70
2023/12/14 00:07:46;;;;;;;;;;;;;;;12.64;50.96;99519.13;4929992;28;131269;-66
2023/12/14 00:10:12;;;;;;;;;;;;;;;12.64;51.01;99536.16;4886598;28;98194;-66
2023/12/14 00:12:41;;;;;;;;;;;;;;;12.64;50.84;99529.94;4925558;28;99762;-66
2023/12/14 00:15:07;;;;;;;;;;;;;;;12.64;50.92;99529.94;4949783;28;99730;-67
2023/12/14 00:17:33;;;;;;;;;;;;;;;12.64;50.79;99532.66;4919682;28;100618;-71
2023/12/14 00:19:59;;;;;;;;;;;;;;;12.64;51.13;99535.34;4919578;28;116975;-66
2023/12/14 00:22:26;;;;;;;;;;;;;;;12.64;51.21;99538.84;4942358;28;113428;-70
2023/12/14 00:24:52;;;;;;;;;;;;;;;12.64;50.86;99530.75;4888050;28;98201;-71
2023/12/14 00:27:18;;;;;;;;;;;;;;;12.63;51.15;99534.56;4906564;28;98518;-71
2023/12/14 00:29:44;;;;;;;;;;;;;;;12.64;51.19;99543.47;4937588;28;119358;-70
2023/12/14 00:32:10;;;;;;;;;;;;;;;12.63;51.14;99544.56;4907583;28;98281;-70
2023/12/14 00:34:36;;;;;;;;;;;;;;;12.63;51.01;99539.97;4957470;28;100235;-71
2023/12/14 00:37:03;;;;;;;;;;;;;;;12.64;51.33;99548.88;4935401;28;98162;-71
2023/12/14 00:39:28;;;;;;;;;;;;;;;12.63;51.03;99552.69;4953236;28;98271;-66
2023/12/14 00:41:55;;;;;;;;;;;;;;;12.63;50.78;99558.88;4929104;28;125546;-70
2023/12/14 00:44:21;;;;;;;;;;;;;;;12.62;50.99;99548.38;4906059;28;98110;-66
2023/12/14 00:46:47;;;;;;;;;;;;;;;12.64;51.19;99551.56;4952802;28;106585;-66
2023/12/14 00:49:13;;;;;;;;;;;;;;;12.63;51.26;99564.28;4892719;28;99575;-66
2023/12/14 00:51:39;;;;;;;;;;;;;;;12.64;51.09;99570.50;4921459;28;99158;-70
2023/12/14 00:54:05;;;;;;;;;;;;;;;12.63;51.08;99572.41;4905916;28;98523;-70
2023/12/14 00:56:31;;;;;;;;;;;;;;;12.62;50.82;99578.91;4902576;28;98089;-71
2023/12/14 00:58:57;;;;;;;;;;;;;;;12.63;51.25;99585.91;4932129;28;98722;-70
2023/12/14 01:01:23;;;;;;;;;;;;;;;12.63;51.16;99591.31;4905421;28;127847;-71
2023/12/14 01:03:49;;;;;;;;;;;;;;;12.63;50.99;99596.72;4942672;28;98387;-70
2023/12/14 01:06:15;;;;;;;;;;;;;;;12.64;51.25;99592.13;4902879;28;99334;-71
2023/12/14 01:08:41;;;;;;;;;;;;;;;12.64;50.74;99598.31;4921644;28;98009;-70
2023/12/14 01:11:07;;;;;;;;;;;;;;;12.65;50.77;99599.13;4906397;28;127691;-70
2023/12/14 01:13:34;;;;;;;;;;;;;;;12.65;50.96;99596.41;4918406;28;98162;-66
2023/12/14 01:16:00;;;;;;;;;;;;;;;12.65;51.01;99596.41;4922900;28;98014;-71
2023/12/14 01:18:26;;;;;;;;;;;;;;;12.63;50.91;99599.44;4928332;28;99279;-66
2023/12/14 01:20:52;;;;;;;;;;;;;;;12.65;51.13;99601.81;4938346;28;98256;-66
2023/12/14 01:23:18;;;;;;;;;;;;;;;12.64;51.07;99598.31;4924733;28;98055;-66
2023/12/14 01:25:44;;;;;;;;;;;;;;;12.66;51.08;99600.75;4942110;28;99578;-66
2023/12/14 01:28:10;;;;;;;;;;;;;;;12.67;50.83;99607.75;4922427;28;98244;-66
2023/12/14 01:30:36;;;;;;;;;;;;;;;12.67;50.75;99615.84;4946534;28;98573;-66
2023/12/14 01:33:02;;;;;;;;;;;;;;;12.67;50.85;99619.34;4926335;28;98380;-70
2023/12/14 01:35:29;;;;;;;;;;;;;;;12.67;50.87;99626.69;4942651;28;104530;-66
2023/12/14 01:37:55;;;;;;;;;;;;;;;12.68;50.87;99628.28;4944284;28;98443;-71
2023/12/14 01:40:21;;;;;;;;;;;;;;;12.68;51.19;99625.56;4946926;28;114228;-66
2023/12/14 01:42:47;;;;;;;;;;;;;;;12.68;51.26;99637.19;4956381;27;98312;-66
2023/12/14 01:45:15;;;;;;;;;;;;;;;12.69;51.05;99635.28;4928172;28;130180;-66
2023/12/14 01:47:44;;;;;;;;;;;;;;;12.69;50.83;99635.28;4944419;28;98139;-66
2023/12/14 01:50:10;;;;;;;;;;;;;;;12.67;50.96;99638.28;4933265;28;98147;-70
2023/12/14 01:52:36;;;;;;;;;;;;;;;12.69;51.00;99643.38;4944898;28;99116;-70
2023/12/14 01:55:03;;;;;;;;;;;;;;;12.69;50.78;99643.38;4946744;28;98704;-66
2023/12/14 01:57:29;;;;;;;;;;;;;;;12.68;51.03;99639.88;4942652;28;103798;-66
2023/12/14 01:59:54;;;;;;;;;;;;;;;12.68;50.81;99637.19;4957542;28;102728;-66
2023/12/14 02:02:20;;;;;;;;;;;;;;;12.69;51.11;99644.22;4929339;28;98863;-71
2023/12/14 02:04:46;;;;;;;;;;;;;;;12.69;50.87;99646.91;4926689;28;114866;-70
2023/12/14 02:07:12;;;;;;;;;;;;;;;12.68;51.07;99648.00;4946402;28;98051;-66
2023/12/14 02:09:39;;;;;;;;;;;;;;;12.69;51.13;99649.63;4927052;28;106984;-66
2023/12/14 02:12:05;;;;;;;;;;;;;;;12.69;50.95;99656.91;4942371;28;98111;-71
2023/12/14 02:14:31;;;;;;;;;;;;;;;12.69;50.78;99656.91;4934638;28;98963;-66
2023/12/14 02:16:57;;;;;;;;;;;;;;;12.69;50.97;99667.72;4921354;28;98539;-66
2023/12/14 02:19:23;;;;;;;;;;;;;;;12.69;50.95;99670.41;4925702;28;99701;-66
2023/12/14 02:21:49;;;;;;;;;;;;;;;12.68;50.88;99671.53;4937833;28;130354;-66
2023/12/14 02:24:15;;;;;;;;;;;;;;;12.69;51.21;99668.53;4909549;28;98305;-70
2023/12/14 02:26:41;;;;;;;;;;;;;;;12.68;50.96;99672.31;4900891;28;115950;-67
2023/12/14 02:29:07;;;;;;;;;;;;;;;12.68;51.10;99672.31;4920234;28;98763;-71
2023/12/14 02:31:33;;;;;;;;;;;;;;;12.68;51.03;99671.53;4922146;28;98374;-67
2023/12/14 02:33:59;;;;;;;;;;;;;;;12.68;50.78;99679.66;4913801;28;97753;-66
2023/12/14 02:36:25;;;;;;;;;;;;;;;12.68;51.08;99682.34;4927177;28;107098;-71
2023/12/14 02:38:51;;;;;;;;;;;;;;;12.67;51.09;99686.16;4923980;28;98528;-70
2023/12/14 02:41:17;;;;;;;;;;;;;;;12.68;51.12;99685.84;4907599;28;119204;-70
2023/12/14 02:43:43;;;;;;;;;;;;;;;12.68;50.93;99682.34;4887642;28;105524;-70
2023/12/14 02:46:11;;;;;;;;;;;;;;;12.67;50.92;99688.88;4924147;28;114691;-71
2023/12/14 02:48:37;;;;;;;;;;;;;;;12.66;51.00;99685.34;4936310;28;98337;-66
2023/12/14 02:51:03;;;;;;;;;;;;;;;12.66;50.99;99688.06;4905279;28;127587;-70
2023/12/14 02:53:29;;;;;;;;;;;;;;;12.65;50.86;99689.13;4920025;28;109034;-66
2023/12/14 02:55:55;;;;;;;;;;;;;;;12.65;51.14;99691.06;4935783;28;119846;-71
2023/12/14 02:58:21;;;;;;;;;;;;;;;12.63;51.04;99688.66;4920794;28;98986;-71
2023/12/14 03:00:48;;;;;;;;;;;;;;;12.64;51.30;99692.16;4938546;28;100979;-71
2023/12/14 03:03:14;;;;;;;;;;;;;;;12.64;50.88;99695.66;4936320;28;98260;-71
2023/12/14 03:05:40;;;;;;;;;;;;;;;12.64;51.10;99700.28;4926040;28;106418;-71
2023/12/14 03:08:06;;;;;;;;;;;;;;;12.63;50.88;99701.38;4917776;28;113521;-66
2023/12/14 03:10:32;;;;;;;;;;;;;;;12.63;51.16;99704.88;4909450;28;98386;-66
2023/12/14 03:12:58;;;;;;;;;;;;;;;12.62;50.96;99708.69;4925074;28;108992;-70
2023/12/14 03:15:24;;;;;;;;;;;;;;;12.62;51.07;99705.97;4933867;28;98601;-66
2023/12/14 03:17:50;;;;;;;;;;;;;;;12.62;50.90;99702.50;4925247;28;99884;-66
2023/12/14 03:20:16;;;;;;;;;;;;;;;12.62;51.09;99716.81;4923624;28;98103;-71
2023/12/14 03:22:42;;;;;;;;;;;;;;;12.62;50.96;99718.72;4909689;28;98407;-71
2023/12/14 03:25:09;;;;;;;;;;;;;;;12.62;50.94;99729.53;4906536;28;116524;-71
2023/12/14 03:27:35;;;;;;;;;;;;;;;12.62;50.95;99732.22;4951921;27;98091;-66
2023/12/14 03:30:03;;;;;;;;;;;;;;;12.62;51.29;99732.22;4925601;28;104647;-72
2023/12/14 03:32:29;;;;;;;;;;;;;;;12.62;51.16;99735.72;4906789;28;99001;-66
2023/12/14 03:34:55;;;;;;;;;;;;;;;12.62;51.01;99732.22;4911592;28;100407;-66
2023/12/14 03:37:21;;;;;;;;;;;;;;;12.60;51.10;99735.22;4907551;28;112812;-71
2023/12/14 03:39:47;;;;;;;;;;;;;;;12.61;50.96;99747.63;4911570;28;99314;-66
2023/12/14 03:42:14;;;;;;;;;;;;;;;12.60;50.78;99754.13;4891450;28;98592;-66
2023/12/14 03:44:40;;;;;;;;;;;;;;;12.61;50.96;99755.72;4958308;28;103960;-71
2023/12/14 03:47:06;;;;;;;;;;;;;;;12.60;50.94;99759.53;4936567;28;98369;-71
2023/12/14 03:49:40;;;;;;;;;;;;;;;12.60;50.90;99756.03;4923480;28;119250;-71
2023/12/14 03:52:06;;;;;;;;;;;;;;;12.61;50.93;99771.16;4952437;28;99143;-66
2023/12/14 03:54:32;;;;;;;;;;;;;;;12.60;51.15;99774.97;4954871;28;98678;-71
2023/12/14 03:56:58;;;;;;;;;;;;;;;12.59;51.17;99776.88;4950899;28;98733;-66
2023/12/14 03:59:24;;;;;;;;;;;;;;;12.59;50.97;99776.06;4888848;28;107845;-66
2023/12/14 04:01:50;;;;;;;;;;;;;;;12.59;51.10;99773.38;4923081;28;98457;-66
2023/12/14 04:04:16;;;;;;;;;;;;;;;12.58;50.91;99780.69;4936243;28;99094;-71
2023/12/14 04:06:42;;;;;;;;;;;;;;;12.58;51.14;99785.28;4925403;28;102450;-66
2023/12/14 04:09:08;;;;;;;;;;;;;;;12.57;51.15;99789.06;4949954;28;110180;-66
2023/12/14 04:11:34;;;;;;;;;;;;;;;12.57;50.85;99795.28;4938599;28;125291;-71
2023/12/14 04:14:00;;;;;;;;;;;;;;;12.57;51.28;99795.28;4912844;28;98118;-66
2023/12/14 04:16:26;;;;;;;;;;;;;;;12.57;51.01;99802.59;4941883;28;128459;-67
2023/12/14 04:18:52;;;;;;;;;;;;;;;12.56;50.71;99807.19;4928278;28;128406;-66
2023/12/14 04:21:18;;;;;;;;;;;;;;;12.57;51.08;99805.28;4935535;28;99557;-70
2023/12/14 04:23:45;;;;;;;;;;;;;;;12.56;51.18;99806.41;4944898;28;99988;-71
2023/12/14 04:26:11;;;;;;;;;;;;;;;12.56;50.87;99814.50;4918378;28;98261;-71
2023/12/14 04:28:37;;;;;;;;;;;;;;;12.56;51.14;99815.31;4926900;28;99705;-71
2023/12/14 04:31:03;;;;;;;;;;;;;;;12.55;50.97;99813.72;4931580;28;125822;-66
2023/12/14 04:33:29;;;;;;;;;;;;;;;12.55;51.19;99829.13;4941644;28;99809;-66
2023/12/14 04:35:55;;;;;;;;;;;;;;;12.55;50.90;99826.44;4925889;28;98623;-71
2023/12/14 04:38:21;;;;;;;;;;;;;;;12.55;50.92;99818.31;4930175;28;98808;-71
2023/12/14 04:40:47;;;;;;;;;;;;;;;12.54;51.26;99836.44;4941793;28;97914;-66
2023/12/14 04:43:13;;;;;;;;;;;;;;;12.52;50.93;99825.09;4928759;28;98031;-66
2023/12/14 04:45:39;;;;;;;;;;;;;;;12.53;51.17;99835.59;4939374;28;98681;-71
2023/12/14 04:48:05;;;;;;;;;;;;;;;12.53;51.12;99832.09;4947129;28;99075;-71
2023/12/14 04:50:32;;;;;;;;;;;;;;;12.53;50.94;99841.00;4943130;28;106163;-71
2023/12/14 04:52:58;;;;;;;;;;;;;;;12.53;51.04;99837.50;4930231;28;98170;-66
2023/12/14 04:55:24;;;;;;;;;;;;;;;12.53;51.15;99854.53;4943991;28;98183;-66
2023/12/14 04:57:51;;;;;;;;;;;;;;;12.53;51.13;99859.94;4924514;28;99910;-71
2023/12/14 05:00:17;;;;;;;;;;;;;;;12.52;51.31;99861.03;4938461;28;98302;-71
2023/12/14 05:02:48;;;;;;;;;;;;;;;12.52;51.23;99865.66;4945946;28;98479;-67
2023/12/14 05:05:14;;;;;;;;;;;;;;;12.51;51.01;99872.97;4944137;28;98445;-67
2023/12/14 05:07:40;;;;;;;;;;;;;;;12.51;51.27;99872.97;4940130;28;98664;-71
2023/12/14 05:10:07;;;;;;;;;;;;;;;12.51;51.00;99874.88;4923309;28;107861;-71
2023/12/14 05:12:33;;;;;;;;;;;;;;;12.51;50.96;99875.66;4927448;28;98343;-71
2023/12/14 05:14:59;;;;;;;;;;;;;;;12.51;51.18;99885.69;4958149;28;107898;-71
2023/12/14 05:17:24;;;;;;;;;;;;;;;12.50;51.12;99890.28;4954106;28;103200;-66
2023/12/14 05:19:51;;;;;;;;;;;;;;;12.50;51.01;99898.41;4955354;28;119562;-66
2023/12/14 05:22:17;;;;;;;;;;;;;;;12.49;50.99;99902.19;4957094;28;98200;-66
2023/12/14 05:24:46;;;;;;;;;;;;;;;12.49;51.08;99904.88;4954125;28;98031;-66
2023/12/14 05:27:12;;;;;;;;;;;;;;;12.49;50.99;99907.59;4938394;28;97940;-71
2023/12/14 05:29:38;;;;;;;;;;;;;;;12.48;50.96;99916.00;4935061;28;127238;-66
2023/12/14 05:32:04;;;;;;;;;;;;;;;12.49;51.11;99923.00;4939216;28;98939;-66
2023/12/14 05:34:30;;;;;;;;;;;;;;;12.48;50.87;99921.41;4919861;28;105712;-67
2023/12/14 05:36:56;;;;;;;;;;;;;;;12.47;50.79;99927.91;4915909;28;125884;-70
2023/12/14 05:39:22;;;;;;;;;;;;;;;12.47;50.84;99927.91;4921803;28;98994;-71
2023/12/14 05:41:48;;;;;;;;;;;;;;;12.46;51.00;99932.53;4921028;28;98796;-67
2023/12/14 05:44:14;;;;;;;;;;;;;;;12.47;50.92;99938.72;4951169;28;130179;-66
2023/12/14 05:46:41;;;;;;;;;;;;;;;12.46;51.10;99939.81;4937316;27;128991;-66
2023/12/14 05:49:07;;;;;;;;;;;;;;;12.44;51.10;99944.72;4954235;28;98263;-66
2023/12/14 05:51:33;;;;;;;;;;;;;;;12.43;51.35;99943.09;4942510;28;101597;-67
2023/12/14 05:53:59;;;;;;;;;;;;;;;12.42;51.15;99947.72;4922134;28;98328;-71
2023/12/14 05:56:29;;;;;;;;;;;;;;;12.42;50.96;99950.41;4927578;28;99313;-71
2023/12/14 05:58:55;;;;;;;;;;;;;;;12.42;51.13;99950.41;4928233;28;98512;-70
2023/12/14 06:01:22;;;;;;;;;;;;;;;12.42;50.96;99960.44;4935871;28;103381;-67
2023/12/14 06:03:49;;;;;;;;;;;;;;;12.42;51.20;99982.06;4953566;28;99576;-66
2023/12/14 06:06:15;;;;;;;;;;;;;;;12.42;51.08;99979.34;4958389;28;100024;-71
2023/12/14 06:08:41;;;;;;;;;;;;;;;12.41;51.33;99978.53;4947008;28;99018;-66
2023/12/14 06:11:08;;;;;;;;;;;;;;;12.41;51.14;99980.41;4938908;28;98977;-66
2023/12/14 06:13:34;;;;;;;;;;;;;;;12.41;51.11;99988.53;4924754;28;98206;-66
2023/12/14 06:16:00;;;;;;;;;;;;;;;12.41;51.12;99988.53;4907731;28;98591;-66
2023/12/14 06:18:26;;;;;;;;;;;;;;;12.40;50.94;99989.63;4924944;28;98087;-67
2023/12/14 06:20:52;;;;;;;;;;;;;;;12.40;50.88;99997.75;4924640;28;115883;-66
2023/12/14 06:23:18;;;;;;;;;;;;;;;12.39;51.14;99996.94;4928121;28;100025;-66
2023/12/14 06:25:44;;;;;;;;;;;;;;;12.39;51.07;99996.94;4928469;28;105078;-71
2023/12/14 06:28:10;;;;;;;;;;;;;;;12.38;50.95;100003.44;4910559;28;126722;-67
2023/12/14 06:30:36;;;;;;;;;;;;;;;12.38;51.06;100011.56;4924845;28;97990;-71
2023/12/14 06:33:02;;;;;;;;;;;;;;;12.38;51.08;100010.72;4942127;28;98884;-71
2023/12/14 06:35:28;;;;;;;;;;;;;;;12.37;51.30;100012.63;4916346;28;120637;-71
2023/12/14 06:37:54;;;;;;;;;;;;;;;12.37;51.23;100019.94;4913278;28;98379;-70
2023/12/14 06:40:20;;;;;;;;;;;;;;;12.36;50.96;100024.53;4912694;28;98325;-66
2023/12/14 06:42:46;;;;;;;;;;;;;;;12.34;51.16;100029.44;4939393;28;113265;-71
2023/12/14 06:45:12;;;;;;;;;;;;;;;12.34;50.98;100040.25;4909621;28;99664;-71
2023/12/14 06:47:41;;;;;;;;;;;;;;;12.34;51.08;100042.13;4896634;28;99982;-66
2023/12/14 06:50:07;;;;;;;;;;;;;;;12.33;51.13;100060.25;4927989;28;99743;-71
2023/12/14 06:52:33;;;;;;;;;;;;;;;12.33;50.99;100064.84;4914899;28;98344;-71
2023/12/14 06:54:59;;;;;;;;;;;;;;;12.33;51.11;100067.56;4913023;28;98380;-71
2023/12/14 06:57:25;;;;;;;;;;;;;;;12.33;51.17;100072.97;4926056;28;98904;-71
2023/12/14 06:59:51;;;;;;;;;;;;;;;12.32;51.09;100072.16;4939550;28;98795;-71
2023/12/14 07:02:17;;;;;;;;;;;;;;;12.32;51.02;100080.28;4941445;28;106556;-66
2023/12/14 07:04:43;;;;;;;;;;;;;;;12.31;51.02;100077.88;4929163;28;98792;-71
2023/12/14 07:07:09;;;;;;;;;;;;;;;12.30;51.02;100087.88;4937417;28;99705;-67
2023/12/14 07:09:35;;;;;;;;;;;;;;;12.31;51.15;100096.78;4919643;28;117903;-71
2023/12/14 07:12:02;;;;;;;;;;;;;;;12.31;50.94;100099.47;4920914;28;111880;-67
2023/12/14 07:14:28;;;;;;;;;;;;;;;12.28;51.20;100101.66;4928928;28;99565;-67
2023/12/14 07:16:54;;;;;;;;;;;;;;;12.30;51.18;100109.50;4930928;28;97924;-66
2023/12/14 07:19:20;;;;;;;;;;;;;;;12.31;51.15;100113.00;4935758;28;109790;-66
2023/12/14 07:21:46;;;;;;;;;;;;;;;12.30;51.06;100117.59;4912738;28;102525;-66
2023/12/14 07:24:12;;;;;;;;;;;;;;;12.29;51.18;100124.06;4937115;28;125694;-71
2023/12/14 07:26:38;;;;;;;;;;;;;;;12.29;50.99;100132.97;4939507;28;98392;-66
2023/12/14 07:29:05;;;;;;;;;;;;;;;12.28;51.15;100136.78;4931306;28;98246;-71
2023/12/14 07:31:31;;;;;;;;;;;;;;;12.28;50.93;100142.19;4938131;28;98317;-71
2023/12/14 07:33:57;;;;;;;;;;;;;;;12.27;50.91;100143.28;4914027;28;99830;-67
2023/12/14 07:36:23;;;;;;;;;;;;;;;12.28;50.91;100157.59;4913222;28;99907;-67
2023/12/14 07:38:49;;;;;;;;;;;;;;;12.27;51.07;100156.81;4937860;28;99129;-71
2023/12/14 07:41:15;;;;;;;;;;;;;;;12.27;51.23;100150.59;4910327;28;130003;-72
2023/12/14 07:43:41;;;;;;;;;;;;;;;12.26;50.97;100155.19;4908436;28;98233;-71
2023/12/14 07:46:07;;;;;;;;;;;;;;;12.26;51.16;100159.78;4887069;28;105073;-72
2023/12/14 07:48:33;;;;;;;;;;;;;;;12.25;51.05;100161.66;4897930;28;97883;-66
2023/12/14 07:51:00;;;;;;;;;;;;;;;12.26;51.05;100170.59;4908246;28;100400;-67
2023/12/14 07:53:26;;;;;;;;;;;;;;;12.25;51.07;100167.06;4925192;28;100005;-71
2023/12/14 07:55:52;;;;;;;;;;;;;;;12.25;50.97;100183.28;4907538;28;98360;-66
2023/12/14 07:58:18;;;;;;;;;;;;;;;12.25;51.08;100182.50;4912298;28;98329;-66
2023/12/14 08:00:44;;;;;;;;;;;;;;;12.25;51.15;100193.31;4924490;28;98280;-66
2023/12/14 08:03:10;;;;;;;;;;;;;;;12.23;51.14;100188.19;4927582;28;107373;-71
2023/12/14 08:05:36;;;;;;;;;;;;;;;12.24;51.14;100199.81;4927219;28;99531;-66
2023/12/14 08:08:02;;;;;;;;;;;;;;;12.23;50.95;100198.19;4911287;28;98056;-71
2023/12/14 08:10:28;;;;;;;;;;;;;;;12.24;51.17;100197.09;4897756;28;98213;-66
2023/12/14 08:12:54;;;;;;;;;;;;;;;12.25;50.94;100196.00;4926818;28;127571;-71
2023/12/14 08:15:20;;;;;;;;;;;;;;;12.27;51.08;100204.66;4944306;28;99144;-72
2023/12/14 08:17:46;;;;;;;;;;;;;;;12.30;50.90;100201.38;4954035;28;120963;-72
2023/12/14 08:20:13;;;;;;;;;;;;;;;12.31;51.18;100208.38;4938442;28;100808;-67
2023/12/14 08:22:44;;;;;;;;;;;;;;;12.32;51.08;100214.59;4930170;28;98404;-72
2023/12/14 08:25:14;;;;;;;;;;;;;;;12.33;50.95;100214.31;4925463;28;99653;-72
2023/12/14 08:27:40;;;;;;;;;;;;;;;12.36;50.94;100223.75;4939207;28;102614;-66
2023/12/14 08:30:07;;;;;;;;;;;;;;;12.35;50.85;100230.25;4924296;28;99148;-71
2023/12/14 08:32:33;;;;;;;;;;;;;;;12.34;50.99;100236.72;4941167;28;98730;-66
2023/12/14 08:34:59;;;;;;;;;;;;;;;12.35;51.21;100249.97;4951056;28;99194;-66
2023/12/14 08:37:26;;;;;;;;;;;;;;;12.34;50.83;100245.66;4933405;28;98463;-66
2023/12/14 08:39:52;;;;;;;;;;;;;;;12.36;51.01;100253.47;4940847;28;98028;-66
2023/12/14 08:42:18;;;;;;;;;;;;;;;12.36;51.06;100262.38;4949670;28;97919;-66
2023/12/14 08:44:44;;;;;;;;;;;;;;;12.36;51.00;100265.09;4926839;28;100126;-71
2023/12/14 08:47:10;;;;;;;;;;;;;;;12.36;50.82;100267.78;4953557;28;98229;-71
2023/12/14 08:49:36;;;;;;;;;;;;;;;12.36;51.09;100284.00;4927064;28;120617;-71
2023/12/14 08:52:04;;;;;;;;;;;;;;;12.35;51.07;100282.41;4922840;28;99162;-66
2023/12/14 08:54:30;;;;;;;;;;;;;;;12.36;51.15;100288.63;4923689;28;99686;-66
2023/12/14 08:56:56;;;;;;;;;;;;;;;12.34;50.68;100290.78;4936755;28;98022;-66
2023/12/14 08:59:22;;;;;;;;;;;;;;;12.35;50.88;100304.03;4905991;28;98300;-71
2023/12/14 09:01:48;;;;;;;;;;;;;;;12.33;50.94;100300.78;4949994;28;111412;-71
2023/12/14 09:04:14;;;;;;;;;;;;;;;12.32;50.89;100307.28;4919636;28;128852;-71
2023/12/14 09:06:44;;;;;;;;;;;;;;;12.33;50.89;100299.97;4940892;28;98068;-71
2023/12/14 09:09:10;;;;;;;;;;;;;;;12.33;51.01;100313.50;4926057;28;98472;-66
2023/12/14 09:11:36;;;;;;;;;;;;;;;12.33;51.09;100317.00;4927182;28;100101;-66
2023/12/14 09:14:03;;;;;;;;;;;;;;;12.32;51.19;100326.22;4953139;27;116902;-71
2023/12/14 09:16:29;;;;;;;;;;;;;;;12.33;51.08;100329.72;4921007;28;98123;-72
2023/12/14 09:18:55;;;;;;;;;;;;;;;12.33;50.76;100332.41;4919180;28;108321;-72
2023/12/14 09:21:21;;;;;;;;;;;;;;;12.33;50.86;100338.63;4921722;28;99954;-71
2023/12/14 09:23:47;;;;;;;;;;;;;;;12.34;50.67;100329.44;4919554;28;98414;-67
2023/12/14 09:26:14;;;;;;;;;;;;;;;12.36;50.80;100337.25;4938435;28;98241;-72
2023/12/14 09:28:40;;;;;;;;;;;;;;;12.37;50.96;100338.88;4901049;28;111242;-72
2023/12/14 09:31:06;;;;;;;;;;;;;;;12.39;50.84;100347.53;4936437;28;98882;-66
2023/12/14 09:33:32;;;;;;;;;;;;;;;12.39;51.15;100351.03;4934131;28;110007;-66
2023/12/14 09:35:58;;;;;;;;;;;;;;;12.42;50.91;100347.78;4927492;28;98325;-66
2023/12/14 09:38:24;;;;;;;;;;;;;;;12.42;50.79;100346.97;4924562;28;130511;-71
2023/12/14 09:40:50;;;;;;;;;;;;;;;12.44;50.96;100353.69;4941481;28;99474;-71
2023/12/14 09:43:16;;;;;;;;;;;;;;;12.48;50.88;100362.03;4952435;28;119650;-72
2023/12/14 09:45:44;;;;;;;;;;;;;;;12.49;50.74;100358.25;4952220;27;116657;-71
2023/12/14 09:48:10;;;;;;;;;;;;;;;12.51;51.06;100372.28;4905428;28;99698;-66
2023/12/14 09:50:37;;;;;;;;;;;;;;;12.52;51.06;100376.59;4940213;28;98555;-72
2023/12/14 09:53:03;;;;;;;;;;;;;;;12.53;50.71;100379.00;4920917;28;99095;-66
2023/12/14 09:55:31;;;;;;;;;;;;;;;12.56;50.81;100380.34;4943936;28;98541;-71
2023/12/14 09:57:57;;;;;;;;;;;;;;;12.58;50.77;100375.50;4940246;28;98407;-66
2023/12/14 10:00:37;;;;;;;;;;;;;;;12.61;50.83;100385.72;4925294;28;98169;-66
2023/12/14 10:03:26;;;;;;;;;;;;;;;12.64;50.84;100385.16;4945797;28;98912;-66
2023/12/14 10:05:53;;;;;;;;;;;;;;;12.66;50.47;100384.91;4938835;28;99284;-70
2023/12/14 10:08:19;;;;;;;;;;;;;;;12.68;50.46;100385.41;4928224;28;99037;-71
2023/12/14 10:10:48;;;;;;;;;;;;;;;12.69;50.97;100390.53;4925176;28;98241;-66
2023/12/14 10:13:15;;;;;;;;;;;;;;;12.70;50.87;100400.28;4923545;28;98924;-71
2023/12/14 10:15:41;;;;;;;;;;;;;;;12.71;50.87;100401.88;4939146;28;98139;-66
2023/12/14 10:18:07;;;;;;;;;;;;;;;12.71;50.51;100396.47;4937292;28;98093;-66
2023/12/14 10:20:33;;;;;;;;;;;;;;;12.72;50.80;100400.78;4937940;28;100069;-70
2023/12/14 10:22:59;;;;;;;;;;;;;;;12.74;50.87;100404.03;4928867;28;127338;-71
2023/12/14 10:25:26;;;;;;;;;;;;;;;12.75;50.93;100405.63;4941273;27;98207;-71
2023/12/14 10:27:54;;;;;;;;;;;;;;;12.76;50.51;100409.13;4936934;28;99310;-66
2023/12/14 10:30:20;;;;;;;;;;;;;;;12.75;50.90;100413.75;4924331;28;98338;-71
2023/12/14 10:32:48;;;;;;;;;;;;;;;12.76;50.74;100407.22;4909499;28;98173;-66
2023/12/14 10:35:16;;;;;;;;;;;;;;;12.75;50.71;100412.94;4922983;28;98102;-70
2023/12/14 10:37:42;;;;;;;;;;;;;;;12.75;50.63;100421.06;4913135;28;99938;-66
2023/12/14 10:40:12;;;;;;;;;;;;;;;12.75;50.70;100423.75;4928439;28;98327;-66
2023/12/14 10:42:38;;;;;;;;;;;;;;;12.74;50.61;100433.78;4925266;28;98206;-71
2023/12/14 10:45:05;;;;;;;;;;;;;;;12.73;50.91;100426.75;4927471;28;98266;-71
2023/12/14 10:47:31;;;;;;;;;;;;;;;12.72;50.49;100433.22;4929187;28;98047;-66
2023/12/14 10:49:57;;;;;;;;;;;;;;;12.71;50.84;100437.03;4921363;28;98580;-71
2023/12/14 10:52:23;;;;;;;;;;;;;;;12.70;50.78;100442.72;4923845;28;127187;-66
2023/12/14 10:54:54;;;;;;;;;;;;;;;12.68;50.97;100443.00;4923630;28;98205;-66
2023/12/14 10:57:20;;;;;;;;;;;;;;;12.67;51.07;100448.69;4927371;28;99591;-70
2023/12/14 10:59:49;;;;;;;;;;;;;;;12.64;50.95;100452.75;4928212;28;103764;-71
2023/12/14 11:02:15;;;;;;;;;;;;;;;12.63;51.04;100459.28;4923039;28;104462;-71
2023/12/14 11:05:05;;;;;;;;;;;;;;;12.63;50.84;100458.47;4929298;28;98277;-71
2023/12/14 11:07:47;;;;;;;;;;;;;;;12.60;50.87;100464.44;4941973;28;98034;-66
2023/12/14 11:10:13;;;;;;;;;;;;;;;12.57;50.61;100468.50;4940004;28;98150;-71
2023/12/14 11:12:57;;;;;;;;;;;;;;;12.53;51.05;100467.44;4927332;28;106417;-66
2023/12/14 11:15:23;;;;;;;;;;;;;;;12.48;50.94;100481.78;4931840;28;98298;-67
2023/12/14 11:18:08;;;;;;;;;;;;;;;12.47;50.59;100484.78;4893712;28;98373;-70
2023/12/14 11:21:00;;;;;;;;;;;;;;;12.42;50.94;100480.22;4922318;28;99959;-66
2023/12/14 11:23:29;;;;;;;;;;;;;;;12.39;50.81;100483.47;4924688;28;98070;-71
2023/12/14 11:25:58;;;;;;;;;;;;;;;12.38;50.82;100489.16;4957313;28;98585;-66
2023/12/14 11:28:24;;;;;;;;;;;;;;;12.36;50.91;100494.03;4911006;28;98228;-70
2023/12/14 11:30:51;;;;;;;;;;;;;;;12.34;51.10;100504.31;4912677;28;98573;-66
2023/12/14 11:33:17;;;;;;;;;;;;;;;12.33;51.12;100500.00;4910149;28;99637;-66
2023/12/14 11:35:43;;;;;;;;;;;;;;;12.32;51.03;100501.09;4908699;28;112413;-67
2023/12/14 11:38:15;;;;;;;;;;;;;;;12.29;51.02;100502.44;4955278;28;98184;-71
2023/12/14 11:40:44;;;;;;;;;;;;;;;12.29;50.64;100505.94;4927412;28;99466;-70
2023/12/14 11:43:10;;;;;;;;;;;;;;;12.28;50.71;100511.66;4925578;28;98899;-70
2023/12/14 11:45:37;;;;;;;;;;;;;;;12.26;50.79;100506.53;4944681;28;98075;-70
2023/12/14 11:48:05;;;;;;;;;;;;;;;12.25;50.76;100504.88;4926372;28;98369;-66
2023/12/14 11:50:32;;;;;;;;;;;;;;;12.25;50.80;100499.47;4958521;28;98867;-66
2023/12/14 11:52:58;;;;;;;;;;;;;;;12.24;50.78;100500.56;4906952;28;98687;-70
2023/12/14 11:55:24;;;;;;;;;;;;;;;12.24;50.72;100497.88;4959888;28;98267;-66
2023/12/14 11:57:51;;;;;;;;;;;;;;;12.26;50.97;100497.59;4943584;28;98411;-66
2023/12/14 12:00:17;;;;;;;;;;;;;;;12.25;50.92;100504.09;4935609;27;99100;-66
2023/12/14 12:02:43;;;;;;;;;;;;;;;12.27;50.58;100516.25;4954853;28;100147;-66
2023/12/14 12:05:13;;;;;;;;;;;;;;;12.25;50.75;100513.00;4896399;28;116563;-70
2023/12/14 12:07:43;;;;;;;;;;;;;;;12.24;50.99;100514.09;4912421;28;98211;-70
2023/12/14 12:10:10;;;;;;;;;;;;;;;12.23;50.86;100522.47;4925133;28;100453;-70
2023/12/14 12:12:37;;;;;;;;;;;;;;;12.22;50.75;100520.84;4939225;28;97947;-70
2023/12/14 12:15:03;;;;;;;;;;;;;;;12.19;50.87;100530.34;4940951;28;98565;-70
2023/12/14 12:17:33;;;;;;;;;;;;;;;12.19;50.84;100532.22;4921634;28;99586;-71
2023/12/14 12:19:59;;;;;;;;;;;;;;;12.17;50.79;100542.50;4925844;28;99839;-70
2023/12/14 12:22:25;;;;;;;;;;;;;;;12.16;50.94;100543.59;4926576;28;99015;-66
2023/12/14 12:24:51;;;;;;;;;;;;;;;12.14;51.03;100540.34;4918627;28;103706;-70
2023/12/14 12:27:18;;;;;;;;;;;;;;;12.12;50.83;100550.63;4924877;28;98219;-70
2023/12/14 12:29:44;;;;;;;;;;;;;;;12.10;50.87;100547.38;4937688;28;123946;-70
2023/12/14 12:32:10;;;;;;;;;;;;;;;12.08;50.98;100554.97;4904955;28;103727;-70
2023/12/14 12:34:36;;;;;;;;;;;;;;;12.06;50.67;100549.81;4920819;28;98551;-71